sensor_id;sensor_type;location;lat;lon;timestamp;P1;durP1;ratioP1;P2;durP2;ratioP2
25301;SDS011;13243;50.888;4.724;2023-07-20T00:02:37;9.48;;;3.40;;
25301;SDS011;13243;50.888;4.724;2023-07-20T00:07:39;5.38;;;3.20;;
25301;SDS011;13243;50.888;4.724;2023-07-20T00:12:41;8.15;;;3.33;;
25301;SDS011;13243;50.888;4.724;2023-07-20T00:17:49;6.32;;;2.97;;
25301;SDS011;13243;50.888;4.724;2023-07-20T00:22:51;9.45;;;3.17;;
25301;SDS011;13243;50.888;4.724;2023-07-20T00:27:53;6.05;;;3.25;;
25301;SDS011;13243;50.888;4.724;2023-07-20T00:32:55;11.90;;;3.53;;
25301;SDS011;13243;50.888;4.724;2023-07-20T00:37:57;5.80;;;3.15;;
25301;SDS011;13243;50.888;4.724;2023-07-20T00:42:58;4.70;;;2.67;;
25301;SDS011;13243;50.888;4.724;2023-07-20T00:48:04;8.07;;;3.05;;
25301;SDS011;13243;50.888;4.724;2023-07-20T00:53:07;8.63;;;3.33;;
25301;SDS011;13243;50.888;4.724;2023-07-20T00:58:09;6.10;;;2.97;;
25301;SDS011;13243;50.888;4.724;2023-07-20T01:03:12;7.95;;;3.20;;
25301;SDS011;13243;50.888;4.724;2023-07-20T01:08:16;5.43;;;3.13;;
25301;SDS011;13243;50.888;4.724;2023-07-20T01:13:25;9.18;;;3.65;;
25301;SDS011;13243;50.888;4.724;2023-07-20T01:18:28;10.48;;;3.70;;
25301;SDS011;13243;50.888;4.724;2023-07-20T01:34:53;11.30;;;3.80;;
25301;SDS011;13243;50.888;4.724;2023-07-20T01:39:56;9.45;;;4.72;;
25301;SDS011;13243;50.888;4.724;2023-07-20T01:44:59;18.23;;;4.60;;
25301;SDS011;13243;50.888;4.724;2023-07-20T01:50:01;16.33;;;4.40;;
25301;SDS011;13243;50.888;4.724;2023-07-20T01:55:03;12.73;;;4.70;;
25301;SDS011;13243;50.888;4.724;2023-07-20T02:00:06;8.23;;;4.20;;
25301;SDS011;13243;50.888;4.724;2023-07-20T02:05:10;13.27;;;5.57;;
25301;SDS011;13243;50.888;4.724;2023-07-20T02:10:12;15.30;;;4.80;;
25301;SDS011;13243;50.888;4.724;2023-07-20T02:15:14;12.40;;;5.30;;
25301;SDS011;13243;50.888;4.724;2023-07-20T02:20:17;18.23;;;6.10;;
25301;SDS011;13243;50.888;4.724;2023-07-20T02:25:20;11.57;;;5.28;;
25301;SDS011;13243;50.888;4.724;2023-07-20T02:30:22;12.40;;;6.13;;
25301;SDS011;13243;50.888;4.724;2023-07-20T02:35:24;16.10;;;6.13;;
25301;SDS011;13243;50.888;4.724;2023-07-20T02:40:27;30.23;;;7.20;;
25301;SDS011;13243;50.888;4.724;2023-07-20T02:45:29;14.45;;;6.13;;
25301;SDS011;13243;50.888;4.724;2023-07-20T02:50:31;15.57;;;6.03;;
25301;SDS011;13243;50.888;4.724;2023-07-20T02:55:33;20.30;;;6.50;;
25301;SDS011;13243;50.888;4.724;2023-07-20T03:00:34;13.63;;;5.80;;
25301;SDS011;13243;50.888;4.724;2023-07-20T03:05:36;15.52;;;7.60;;
25301;SDS011;13243;50.888;4.724;2023-07-20T03:10:41;20.15;;;7.05;;
25301;SDS011;13243;50.888;4.724;2023-07-20T03:15:43;11.20;;;5.95;;
25301;SDS011;13243;50.888;4.724;2023-07-20T03:20:45;17.50;;;6.15;;
25301;SDS011;13243;50.888;4.724;2023-07-20T03:25:47;14.10;;;6.28;;
25301;SDS011;13243;50.888;4.724;2023-07-20T03:30:56;16.35;;;6.75;;
25301;SDS011;13243;50.888;4.724;2023-07-20T03:35:58;15.65;;;8.13;;
25301;SDS011;13243;50.888;4.724;2023-07-20T03:41:00;17.80;;;9.77;;
25301;SDS011;13243;50.888;4.724;2023-07-20T03:46:02;16.15;;;9.93;;
25301;SDS011;13243;50.888;4.724;2023-07-20T03:51:08;22.15;;;9.80;;
25301;SDS011;13243;50.888;4.724;2023-07-20T03:56:10;17.40;;;9.80;;
25301;SDS011;13243;50.888;4.724;2023-07-20T04:01:12;18.27;;;9.27;;
25301;SDS011;13243;50.888;4.724;2023-07-20T04:06:14;19.23;;;8.43;;
25301;SDS011;13243;50.888;4.724;2023-07-20T04:11:18;16.58;;;8.82;;
25301;SDS011;13243;50.888;4.724;2023-07-20T04:16:20;27.23;;;9.35;;
25301;SDS011;13243;50.888;4.724;2023-07-20T04:21:22;19.02;;;8.95;;
25301;SDS011;13243;50.888;4.724;2023-07-20T04:26:25;23.50;;;10.20;;
25301;SDS011;13243;50.888;4.724;2023-07-20T04:31:26;23.13;;;10.07;;
25301;SDS011;13243;50.888;4.724;2023-07-20T04:36:28;20.13;;;10.23;;
25301;SDS011;13243;50.888;4.724;2023-07-20T04:41:30;17.75;;;9.93;;
25301;SDS011;13243;50.888;4.724;2023-07-20T04:46:36;17.85;;;10.18;;
25301;SDS011;13243;50.888;4.724;2023-07-20T04:51:38;24.00;;;10.65;;
25301;SDS011;13243;50.888;4.724;2023-07-20T04:56:40;18.70;;;9.73;;
25301;SDS011;13243;50.888;4.724;2023-07-20T05:01:42;18.92;;;11.35;;
25301;SDS011;13243;50.888;4.724;2023-07-20T05:06:44;19.92;;;10.68;;
25301;SDS011;13243;50.888;4.724;2023-07-20T05:11:46;22.50;;;11.57;;
25301;SDS011;13243;50.888;4.724;2023-07-20T05:16:50;18.00;;;11.13;;
25301;SDS011;13243;50.888;4.724;2023-07-20T05:21:52;21.95;;;11.90;;
25301;SDS011;13243;50.888;4.724;2023-07-20T05:26:53;25.67;;;11.05;;
25301;SDS011;13243;50.888;4.724;2023-07-20T05:31:55;19.65;;;12.30;;
25301;SDS011;13243;50.888;4.724;2023-07-20T05:36:57;23.05;;;12.13;;
25301;SDS011;13243;50.888;4.724;2023-07-20T05:41:59;25.98;;;12.43;;
25301;SDS011;13243;50.888;4.724;2023-07-20T05:47:01;23.45;;;12.32;;
25301;SDS011;13243;50.888;4.724;2023-07-20T05:52:04;22.90;;;11.95;;
25301;SDS011;13243;50.888;4.724;2023-07-20T05:57:07;16.88;;;10.82;;
25301;SDS011;13243;50.888;4.724;2023-07-20T06:02:09;18.83;;;11.48;;
25301;SDS011;13243;50.888;4.724;2023-07-20T06:07:12;20.27;;;11.75;;
25301;SDS011;13243;50.888;4.724;2023-07-20T06:12:14;22.33;;;12.20;;
25301;SDS011;13243;50.888;4.724;2023-07-20T06:17:16;19.88;;;10.95;;
25301;SDS011;13243;50.888;4.724;2023-07-20T06:22:18;16.65;;;11.02;;
25301;SDS011;13243;50.888;4.724;2023-07-20T06:27:20;19.95;;;11.15;;
25301;SDS011;13243;50.888;4.724;2023-07-20T06:32:22;17.77;;;11.10;;
25301;SDS011;13243;50.888;4.724;2023-07-20T06:37:23;21.85;;;13.05;;
25301;SDS011;13243;50.888;4.724;2023-07-20T06:42:26;18.52;;;12.52;;
25301;SDS011;13243;50.888;4.724;2023-07-20T06:47:48;23.85;;;13.32;;
25301;SDS011;13243;50.888;4.724;2023-07-20T06:52:50;25.48;;;14.85;;
25301;SDS011;13243;50.888;4.724;2023-07-20T06:57:51;30.95;;;15.77;;
25301;SDS011;13243;50.888;4.724;2023-07-20T07:02:58;21.75;;;15.25;;
25301;SDS011;13243;50.888;4.724;2023-07-20T07:08:00;23.05;;;14.85;;
25301;SDS011;13243;50.888;4.724;2023-07-20T07:13:03;24.65;;;15.95;;
25301;SDS011;13243;50.888;4.724;2023-07-20T07:18:06;19.40;;;14.48;;
25301;SDS011;13243;50.888;4.724;2023-07-20T07:23:08;19.95;;;14.93;;
25301;SDS011;13243;50.888;4.724;2023-07-20T07:28:10;24.65;;;16.30;;
25301;SDS011;13243;50.888;4.724;2023-07-20T07:33:12;21.42;;;14.93;;
25301;SDS011;13243;50.888;4.724;2023-07-20T07:38:13;21.98;;;13.50;;
25301;SDS011;13243;50.888;4.724;2023-07-20T07:43:35;17.98;;;12.50;;
25301;SDS011;13243;50.888;4.724;2023-07-20T07:48:37;15.90;;;11.50;;
25301;SDS011;13243;50.888;4.724;2023-07-20T07:53:39;18.85;;;11.88;;
25301;SDS011;13243;50.888;4.724;2023-07-20T07:58:41;14.43;;;10.63;;
25301;SDS011;13243;50.888;4.724;2023-07-20T08:03:43;16.25;;;11.98;;
25301;SDS011;13243;50.888;4.724;2023-07-20T08:08:48;14.10;;;12.00;;
25301;SDS011;13243;50.888;4.724;2023-07-20T08:13:50;16.60;;;11.88;;
25301;SDS011;13243;50.888;4.724;2023-07-20T08:18:51;18.52;;;13.43;;
25301;SDS011;13243;50.888;4.724;2023-07-20T08:23:54;16.15;;;12.05;;
25301;SDS011;13243;50.888;4.724;2023-07-20T08:28:56;13.00;;;10.13;;
25301;SDS011;13243;50.888;4.724;2023-07-20T08:33:57;14.52;;;11.10;;
25301;SDS011;13243;50.888;4.724;2023-07-20T08:38:59;12.07;;;10.15;;
25301;SDS011;13243;50.888;4.724;2023-07-20T08:44:01;11.52;;;8.60;;
25301;SDS011;13243;50.888;4.724;2023-07-20T08:49:03;7.97;;;6.68;;
25301;SDS011;13243;50.888;4.724;2023-07-20T08:54:07;8.45;;;7.30;;
25301;SDS011;13243;50.888;4.724;2023-07-20T08:59:12;7.15;;;5.22;;
25301;SDS011;13243;50.888;4.724;2023-07-20T09:04:17;4.85;;;3.22;;
25301;SDS011;13243;50.888;4.724;2023-07-20T09:09:19;9.95;;;7.60;;
25301;SDS011;13243;50.888;4.724;2023-07-20T09:14:21;10.90;;;4.07;;
25301;SDS011;13243;50.888;4.724;2023-07-20T09:19:26;10.80;;;5.47;;
25301;SDS011;13243;50.888;4.724;2023-07-20T09:24:28;4.93;;;2.92;;
25301;SDS011;13243;50.888;4.724;2023-07-20T09:29:30;4.45;;;3.53;;
25301;SDS011;13243;50.888;4.724;2023-07-20T09:34:32;6.28;;;3.53;;
25301;SDS011;13243;50.888;4.724;2023-07-20T09:39:43;3.90;;;2.35;;
25301;SDS011;13243;50.888;4.724;2023-07-20T09:44:49;3.33;;;2.28;;
25301;SDS011;13243;50.888;4.724;2023-07-20T09:49:59;3.03;;;2.10;;
25301;SDS011;13243;50.888;4.724;2023-07-20T09:55:07;5.05;;;2.90;;
25301;SDS011;13243;50.888;4.724;2023-07-20T10:00:10;4.60;;;2.47;;
25301;SDS011;13243;50.888;4.724;2023-07-20T10:05:17;4.20;;;2.33;;
25301;SDS011;13243;50.888;4.724;2023-07-20T10:10:19;3.05;;;1.80;;
25301;SDS011;13243;50.888;4.724;2023-07-20T10:15:27;3.50;;;2.03;;
25301;SDS011;13243;50.888;4.724;2023-07-20T10:20:30;3.75;;;1.58;;
25301;SDS011;13243;50.888;4.724;2023-07-20T10:25:34;5.43;;;2.05;;
25301;SDS011;13243;50.888;4.724;2023-07-20T10:30:39;2.13;;;1.67;;
25301;SDS011;13243;50.888;4.724;2023-07-20T10:36:00;3.13;;;1.60;;
25301;SDS011;13243;50.888;4.724;2023-07-20T10:41:04;2.85;;;1.52;;
25301;SDS011;13243;50.888;4.724;2023-07-20T10:51:42;1.75;;;1.15;;
25301;SDS011;13243;50.888;4.724;2023-07-20T10:56:48;2.67;;;1.20;;
25301;SDS011;13243;50.888;4.724;2023-07-20T11:01:57;1.45;;;1.20;;
25301;SDS011;13243;50.888;4.724;2023-07-20T11:07:02;2.25;;;1.23;;
25301;SDS011;13243;50.888;4.724;2023-07-20T11:17:15;2.58;;;1.60;;
25301;SDS011;13243;50.888;4.724;2023-07-20T11:22:21;2.72;;;1.30;;
25301;SDS011;13243;50.888;4.724;2023-07-20T11:27:23;2.13;;;1.30;;
25301;SDS011;13243;50.888;4.724;2023-07-20T11:32:25;3.35;;;1.30;;
25301;SDS011;13243;50.888;4.724;2023-07-20T11:37:27;1.35;;;1.20;;
25301;SDS011;13243;50.888;4.724;2023-07-20T11:42:30;3.40;;;1.10;;
25301;SDS011;13243;50.888;4.724;2023-07-20T11:47:40;5.05;;;1.40;;
25301;SDS011;13243;50.888;4.724;2023-07-20T11:52:43;1.80;;;1.35;;
25301;SDS011;13243;50.888;4.724;2023-07-20T11:58:04;2.22;;;1.23;;
25301;SDS011;13243;50.888;4.724;2023-07-20T12:03:07;2.42;;;1.45;;
25301;SDS011;13243;50.888;4.724;2023-07-20T12:08:12;2.38;;;1.33;;
25301;SDS011;13243;50.888;4.724;2023-07-20T12:13:15;1.35;;;1.02;;
25301;SDS011;13243;50.888;4.724;2023-07-20T12:18:17;2.53;;;1.70;;
25301;SDS011;13243;50.888;4.724;2023-07-20T12:23:19;2.70;;;1.55;;
25301;SDS011;13243;50.888;4.724;2023-07-20T12:28:21;2.15;;;1.40;;
25301;SDS011;13243;50.888;4.724;2023-07-20T12:33:23;7.70;;;1.50;;
25301;SDS011;13243;50.888;4.724;2023-07-20T12:38:25;3.63;;;1.20;;
25301;SDS011;13243;50.888;4.724;2023-07-20T12:43:28;4.00;;;1.40;;
25301;SDS011;13243;50.888;4.724;2023-07-20T12:48:31;1.67;;;1.15;;
25301;SDS011;13243;50.888;4.724;2023-07-20T12:53:33;2.83;;;1.17;;
25301;SDS011;13243;50.888;4.724;2023-07-20T12:58:35;1.23;;;1.02;;
25301;SDS011;13243;50.888;4.724;2023-07-20T13:03:38;2.15;;;1.10;;
25301;SDS011;13243;50.888;4.724;2023-07-20T13:09:00;1.98;;;1.40;;
25301;SDS011;13243;50.888;4.724;2023-07-20T13:14:02;5.72;;;1.30;;
25301;SDS011;13243;50.888;4.724;2023-07-20T13:19:04;1.98;;;1.10;;
25301;SDS011;13243;50.888;4.724;2023-07-20T13:24:06;2.92;;;1.10;;
25301;SDS011;13243;50.888;4.724;2023-07-20T13:29:08;2.10;;;1.20;;
25301;SDS011;13243;50.888;4.724;2023-07-20T13:34:10;2.42;;;1.35;;
25301;SDS011;13243;50.888;4.724;2023-07-20T13:39:12;4.47;;;1.70;;
25301;SDS011;13243;50.888;4.724;2023-07-20T13:44:14;5.53;;;1.80;;
25301;SDS011;13243;50.888;4.724;2023-07-20T13:49:18;7.38;;;1.70;;
25301;SDS011;13243;50.888;4.724;2023-07-20T13:54:24;3.30;;;1.73;;
25301;SDS011;13243;50.888;4.724;2023-07-20T13:59:28;3.13;;;1.52;;
25301;SDS011;13243;50.888;4.724;2023-07-20T14:04:30;3.08;;;1.70;;
25301;SDS011;13243;50.888;4.724;2023-07-20T14:09:32;2.08;;;1.60;;
25301;SDS011;13243;50.888;4.724;2023-07-20T14:14:34;1.60;;;1.30;;
25301;SDS011;13243;50.888;4.724;2023-07-20T14:19:37;3.33;;;1.10;;
25301;SDS011;13243;50.888;4.724;2023-07-20T14:24:39;3.88;;;1.35;;
25301;SDS011;13243;50.888;4.724;2023-07-20T14:29:41;2.05;;;1.30;;
25301;SDS011;13243;50.888;4.724;2023-07-20T14:34:43;3.63;;;1.20;;
25301;SDS011;13243;50.888;4.724;2023-07-20T14:39:48;2.55;;;1.35;;
25301;SDS011;13243;50.888;4.724;2023-07-20T14:44:50;1.58;;;1.48;;
25301;SDS011;13243;50.888;4.724;2023-07-20T14:49:52;3.17;;;1.30;;
25301;SDS011;13243;50.888;4.724;2023-07-20T14:54:54;1.65;;;1.27;;
25301;SDS011;13243;50.888;4.724;2023-07-20T14:59:57;1.83;;;1.30;;
25301;SDS011;13243;50.888;4.724;2023-07-20T15:04:58;4.30;;;1.50;;
25301;SDS011;13243;50.888;4.724;2023-07-20T15:10:01;2.33;;;1.10;;
25301;SDS011;13243;50.888;4.724;2023-07-20T15:15:10;13.55;;;1.73;;
25301;SDS011;13243;50.888;4.724;2023-07-20T15:20:15;3.00;;;1.17;;
25301;SDS011;13243;50.888;4.724;2023-07-20T15:25:18;2.47;;;1.10;;
25301;SDS011;13243;50.888;4.724;2023-07-20T15:30:20;4.40;;;1.30;;
25301;SDS011;13243;50.888;4.724;2023-07-20T15:35:25;1.58;;;1.10;;
25301;SDS011;13243;50.888;4.724;2023-07-20T15:40:27;4.10;;;1.20;;
25301;SDS011;13243;50.888;4.724;2023-07-20T15:45:30;2.83;;;1.33;;
25301;SDS011;13243;50.888;4.724;2023-07-20T15:50:31;2.70;;;1.30;;
25301;SDS011;13243;50.888;4.724;2023-07-20T15:55:33;2.50;;;1.60;;
25301;SDS011;13243;50.888;4.724;2023-07-20T16:00:36;3.72;;;1.30;;
25301;SDS011;13243;50.888;4.724;2023-07-20T16:05:39;2.50;;;1.35;;
25301;SDS011;13243;50.888;4.724;2023-07-20T16:10:41;2.85;;;1.30;;
25301;SDS011;13243;50.888;4.724;2023-07-20T16:15:43;3.40;;;1.60;;
25301;SDS011;13243;50.888;4.724;2023-07-20T16:20:48;2.35;;;1.50;;
25301;SDS011;13243;50.888;4.724;2023-07-20T16:25:50;2.70;;;1.90;;
25301;SDS011;13243;50.888;4.724;2023-07-20T16:30:53;12.18;;;2.90;;
25301;SDS011;13243;50.888;4.724;2023-07-20T16:35:55;4.35;;;3.67;;
25301;SDS011;13243;50.888;4.724;2023-07-20T16:40:58;8.05;;;4.07;;
25301;SDS011;13243;50.888;4.724;2023-07-20T16:46:04;5.85;;;4.32;;
25301;SDS011;13243;50.888;4.724;2023-07-20T16:51:12;4.75;;;4.35;;
25301;SDS011;13243;50.888;4.724;2023-07-20T16:56:14;8.25;;;4.32;;
25301;SDS011;13243;50.888;4.724;2023-07-20T17:01:16;6.20;;;4.80;;
25301;SDS011;13243;50.888;4.724;2023-07-20T17:06:18;5.45;;;4.65;;
25301;SDS011;13243;50.888;4.724;2023-07-20T17:11:20;4.53;;;4.13;;
25301;SDS011;13243;50.888;4.724;2023-07-20T17:16:23;7.80;;;5.82;;
25301;SDS011;13243;50.888;4.724;2023-07-20T17:21:25;8.13;;;6.78;;
25301;SDS011;13243;50.888;4.724;2023-07-20T17:26:28;6.45;;;5.80;;
25301;SDS011;13243;50.888;4.724;2023-07-20T17:31:33;8.65;;;5.03;;
25301;SDS011;13243;50.888;4.724;2023-07-20T17:36:35;7.38;;;6.60;;
25301;SDS011;13243;50.888;4.724;2023-07-20T17:41:40;7.60;;;6.80;;
25301;SDS011;13243;50.888;4.724;2023-07-20T17:46:42;7.25;;;6.63;;
25301;SDS011;13243;50.888;4.724;2023-07-20T17:51:47;8.63;;;7.57;;
25301;SDS011;13243;50.888;4.724;2023-07-20T17:56:49;9.13;;;6.00;;
25301;SDS011;13243;50.888;4.724;2023-07-20T18:01:51;13.90;;;6.47;;
25301;SDS011;13243;50.888;4.724;2023-07-20T18:06:53;8.65;;;6.65;;
25301;SDS011;13243;50.888;4.724;2023-07-20T18:11:55;9.75;;;7.07;;
25301;SDS011;13243;50.888;4.724;2023-07-20T18:16:56;7.43;;;6.63;;
25301;SDS011;13243;50.888;4.724;2023-07-20T18:21:58;8.68;;;7.53;;
25301;SDS011;13243;50.888;4.724;2023-07-20T18:27:00;10.32;;;6.80;;
25301;SDS011;13243;50.888;4.724;2023-07-20T18:32:02;6.78;;;6.10;;
25301;SDS011;13243;50.888;4.724;2023-07-20T18:37:04;9.50;;;6.28;;
25301;SDS011;13243;50.888;4.724;2023-07-20T18:42:06;10.50;;;7.10;;
25301;SDS011;13243;50.888;4.724;2023-07-20T18:47:08;8.48;;;7.30;;
25301;SDS011;13243;50.888;4.724;2023-07-20T18:52:10;7.82;;;7.03;;
25301;SDS011;13243;50.888;4.724;2023-07-20T18:57:12;12.57;;;6.47;;
25301;SDS011;13243;50.888;4.724;2023-07-20T19:02:15;7.95;;;6.95;;
25301;SDS011;13243;50.888;4.724;2023-07-20T19:07:17;12.10;;;7.05;;
25301;SDS011;13243;50.888;4.724;2023-07-20T19:12:19;7.68;;;7.00;;
25301;SDS011;13243;50.888;4.724;2023-07-20T19:17:21;8.15;;;7.35;;
25301;SDS011;13243;50.888;4.724;2023-07-20T19:22:26;11.85;;;7.55;;
25301;SDS011;13243;50.888;4.724;2023-07-20T19:27:28;8.45;;;7.25;;
25301;SDS011;13243;50.888;4.724;2023-07-20T19:32:30;9.60;;;7.78;;
25301;SDS011;13243;50.888;4.724;2023-07-20T19:37:32;11.55;;;7.65;;
25301;SDS011;13243;50.888;4.724;2023-07-20T19:42:34;10.20;;;8.25;;
25301;SDS011;13243;50.888;4.724;2023-07-20T19:47:36;8.60;;;7.70;;
25301;SDS011;13243;50.888;4.724;2023-07-20T19:52:38;9.85;;;7.85;;
25301;SDS011;13243;50.888;4.724;2023-07-20T19:58:03;11.10;;;7.68;;
25301;SDS011;13243;50.888;4.724;2023-07-20T20:03:05;9.65;;;7.43;;
25301;SDS011;13243;50.888;4.724;2023-07-20T20:08:11;9.38;;;8.13;;
25301;SDS011;13243;50.888;4.724;2023-07-20T20:13:13;9.30;;;7.43;;
25301;SDS011;13243;50.888;4.724;2023-07-20T20:18:15;8.65;;;7.80;;
25301;SDS011;13243;50.888;4.724;2023-07-20T20:23:18;12.55;;;8.88;;
25301;SDS011;13243;50.888;4.724;2023-07-20T20:28:21;12.60;;;11.30;;
25301;SDS011;13243;50.888;4.724;2023-07-20T20:33:24;14.82;;;12.07;;
25301;SDS011;13243;50.888;4.724;2023-07-20T20:38:26;11.98;;;10.65;;
25301;SDS011;13243;50.888;4.724;2023-07-20T20:43:29;11.05;;;9.77;;
25301;SDS011;13243;50.888;4.724;2023-07-20T20:48:31;34.25;;;23.92;;
25301;SDS011;13243;50.888;4.724;2023-07-20T20:53:37;40.88;;;27.88;;
25301;SDS011;13243;50.888;4.724;2023-07-20T20:58:41;18.15;;;13.98;;
25301;SDS011;13243;50.888;4.724;2023-07-20T21:03:44;19.83;;;13.35;;
25301;SDS011;13243;50.888;4.724;2023-07-20T21:08:46;17.20;;;11.50;;
25301;SDS011;13243;50.888;4.724;2023-07-20T21:13:48;14.85;;;11.13;;
25301;SDS011;13243;50.888;4.724;2023-07-20T21:18:50;11.63;;;9.95;;
25301;SDS011;13243;50.888;4.724;2023-07-20T21:23:53;10.82;;;9.73;;
25301;SDS011;13243;50.888;4.724;2023-07-20T21:28:54;11.20;;;9.13;;
25301;SDS011;13243;50.888;4.724;2023-07-20T21:33:56;13.55;;;9.98;;
25301;SDS011;13243;50.888;4.724;2023-07-20T21:38:58;12.00;;;9.23;;
25301;SDS011;13243;50.888;4.724;2023-07-20T21:44:00;11.93;;;9.68;;
25301;SDS011;13243;50.888;4.724;2023-07-20T21:49:02;11.98;;;10.20;;
25301;SDS011;13243;50.888;4.724;2023-07-20T21:54:04;17.75;;;9.98;;
25301;SDS011;13243;50.888;4.724;2023-07-20T21:59:06;14.15;;;12.27;;
25301;SDS011;13243;50.888;4.724;2023-07-20T22:04:08;13.85;;;11.45;;
25301;SDS011;13243;50.888;4.724;2023-07-20T22:09:11;13.25;;;11.95;;
25301;SDS011;13243;50.888;4.724;2023-07-20T22:14:16;14.45;;;11.98;;
25301;SDS011;13243;50.888;4.724;2023-07-20T22:19:18;13.63;;;12.23;;
25301;SDS011;13243;50.888;4.724;2023-07-20T22:24:20;14.88;;;11.95;;
25301;SDS011;13243;50.888;4.724;2023-07-20T22:29:22;12.50;;;10.95;;
25301;SDS011;13243;50.888;4.724;2023-07-20T22:34:28;14.75;;;13.10;;
25301;SDS011;13243;50.888;4.724;2023-07-20T22:39:31;13.38;;;11.88;;
25301;SDS011;13243;50.888;4.724;2023-07-20T22:44:34;16.42;;;12.10;;
25301;SDS011;13243;50.888;4.724;2023-07-20T22:49:36;12.98;;;11.35;;
25301;SDS011;13243;50.888;4.724;2023-07-20T22:54:38;14.07;;;11.05;;
25301;SDS011;13243;50.888;4.724;2023-07-20T22:59:40;13.23;;;11.93;;
25301;SDS011;13243;50.888;4.724;2023-07-20T23:04:42;17.60;;;12.30;;
25301;SDS011;13243;50.888;4.724;2023-07-20T23:09:45;13.98;;;11.48;;
25301;SDS011;13243;50.888;4.724;2023-07-20T23:14:47;12.57;;;11.38;;
25301;SDS011;13243;50.888;4.724;2023-07-20T23:19:49;13.20;;;11.88;;
25301;SDS011;13243;50.888;4.724;2023-07-20T23:24:51;12.77;;;11.32;;
25301;SDS011;13243;50.888;4.724;2023-07-20T23:29:53;13.07;;;11.45;;
25301;SDS011;13243;50.888;4.724;2023-07-20T23:34:55;11.95;;;10.77;;
25301;SDS011;13243;50.888;4.724;2023-07-20T23:39:57;12.98;;;11.68;;
25301;SDS011;13243;50.888;4.724;2023-07-20T23:44:59;12.45;;;11.25;;
25301;SDS011;13243;50.888;4.724;2023-07-20T23:50:02;18.23;;;12.10;;
25301;SDS011;13243;50.888;4.724;2023-07-20T23:55:05;13.90;;;11.93;;
